sensor_id;sensor_type;location;lat;lon;timestamp;temperature;humidity
28532;DHT22;15738;44.860;10.066;2023-08-21T00:02:32;28.90;99.90
28532;DHT22;15738;44.860;10.066;2023-08-21T00:05:18;28.80;99.90
28532;DHT22;15738;44.860;10.066;2023-08-21T00:11:54;28.80;99.90
28532;DHT22;15738;44.860;10.066;2023-08-21T00:14:40;28.80;99.90
28532;DHT22;15738;44.860;10.066;2023-08-21T00:17:25;28.70;99.90
28532;DHT22;15738;44.860;10.066;2023-08-21T00:20:11;28.60;99.90
28532;DHT22;15738;44.860;10.066;2023-08-21T00:22:57;28.60;99.90
28532;DHT22;15738;44.860;10.066;2023-08-21T00:25:47;28.60;99.90
28532;DHT22;15738;44.860;10.066;2023-08-21T00:28:33;28.50;99.90
28532;DHT22;15738;44.860;10.066;2023-08-21T00:31:20;28.40;99.90
28532;DHT22;15738;44.860;10.066;2023-08-21T00:34:06;28.40;99.90
28532;DHT22;15738;44.860;10.066;2023-08-21T00:36:54;28.40;99.90
28532;DHT22;15738;44.860;10.066;2023-08-21T00:39:40;28.30;99.90
28532;DHT22;15738;44.860;10.066;2023-08-21T00:42:27;28.30;99.90
28532;DHT22;15738;44.860;10.066;2023-08-21T00:45:13;28.20;99.90
28532;DHT22;15738;44.860;10.066;2023-08-21T00:47:59;28.20;99.90
28532;DHT22;15738;44.860;10.066;2023-08-21T00:50:45;28.10;99.90
28532;DHT22;15738;44.860;10.066;2023-08-21T00:53:32;28.10;99.90
28532;DHT22;15738;44.860;10.066;2023-08-21T00:56:18;28.10;99.90
28532;DHT22;15738;44.860;10.066;2023-08-21T00:59:04;28.00;99.90
28532;DHT22;15738;44.860;10.066;2023-08-21T01:01:51;28.00;99.90
28532;DHT22;15738;44.860;10.066;2023-08-21T01:04:37;27.90;99.90
28532;DHT22;15738;44.860;10.066;2023-08-21T01:07:23;28.00;99.90
28532;DHT22;15738;44.860;10.066;2023-08-21T01:10:20;27.90;99.90
28532;DHT22;15738;44.860;10.066;2023-08-21T01:16:19;27.90;99.90
28532;DHT22;15738;44.860;10.066;2023-08-21T01:19:14;27.80;99.90
28532;DHT22;15738;44.860;10.066;2023-08-21T01:22:04;27.80;99.90
28532;DHT22;15738;44.860;10.066;2023-08-21T01:24:50;27.80;99.90
28532;DHT22;15738;44.860;10.066;2023-08-21T01:27:36;27.70;99.90
28532;DHT22;15738;44.860;10.066;2023-08-21T01:30:22;27.70;99.90
28532;DHT22;15738;44.860;10.066;2023-08-21T01:33:11;27.70;99.90
28532;DHT22;15738;44.860;10.066;2023-08-21T01:36:01;27.60;99.90
28532;DHT22;15738;44.860;10.066;2023-08-21T01:38:50;27.60;99.90
28532;DHT22;15738;44.860;10.066;2023-08-21T01:41:36;27.50;99.90
28532;DHT22;15738;44.860;10.066;2023-08-21T01:44:22;27.50;99.90
28532;DHT22;15738;44.860;10.066;2023-08-21T01:47:08;27.50;99.90
28532;DHT22;15738;44.860;10.066;2023-08-21T01:49:55;27.40;99.90
28532;DHT22;15738;44.860;10.066;2023-08-21T01:52:41;27.40;99.90
28532;DHT22;15738;44.860;10.066;2023-08-21T01:55:27;27.40;99.90
28532;DHT22;15738;44.860;10.066;2023-08-21T01:58:12;27.40;99.90
28532;DHT22;15738;44.860;10.066;2023-08-21T02:00:58;27.30;99.90
28532;DHT22;15738;44.860;10.066;2023-08-21T02:03:46;27.30;99.90
28532;DHT22;15738;44.860;10.066;2023-08-21T02:06:32;27.30;99.90
28532;DHT22;15738;44.860;10.066;2023-08-21T02:09:18;27.30;99.90
28532;DHT22;15738;44.860;10.066;2023-08-21T02:12:04;27.20;99.90
28532;DHT22;15738;44.860;10.066;2023-08-21T02:14:50;27.10;99.90
28532;DHT22;15738;44.860;10.066;2023-08-21T02:17:36;27.10;99.90
28532;DHT22;15738;44.860;10.066;2023-08-21T02:20:22;27.00;99.90
28532;DHT22;15738;44.860;10.066;2023-08-21T02:23:08;27.00;99.90
28532;DHT22;15738;44.860;10.066;2023-08-21T02:25:54;27.00;99.90
28532;DHT22;15738;44.860;10.066;2023-08-21T02:28:40;27.00;99.90
28532;DHT22;15738;44.860;10.066;2023-08-21T02:31:29;27.00;99.90
28532;DHT22;15738;44.860;10.066;2023-08-21T02:34:15;26.90;99.90
28532;DHT22;15738;44.860;10.066;2023-08-21T02:37:04;26.90;99.90
28532;DHT22;15738;44.860;10.066;2023-08-21T02:39:50;26.90;99.90
28532;DHT22;15738;44.860;10.066;2023-08-21T02:42:36;26.90;99.90
28532;DHT22;15738;44.860;10.066;2023-08-21T02:45:22;26.90;99.90
28532;DHT22;15738;44.860;10.066;2023-08-21T02:48:08;26.80;99.90
28532;DHT22;15738;44.860;10.066;2023-08-21T02:50:53;26.80;99.90
28532;DHT22;15738;44.860;10.066;2023-08-21T02:53:39;26.70;99.90
28532;DHT22;15738;44.860;10.066;2023-08-21T02:56:25;26.70;99.90
28532;DHT22;15738;44.860;10.066;2023-08-21T02:59:11;26.60;99.90
28532;DHT22;15738;44.860;10.066;2023-08-21T03:01:57;26.60;99.90
28532;DHT22;15738;44.860;10.066;2023-08-21T03:04:43;26.60;99.90
28532;DHT22;15738;44.860;10.066;2023-08-21T03:07:29;26.60;99.90
28532;DHT22;15738;44.860;10.066;2023-08-21T03:10:15;26.60;99.90
28532;DHT22;15738;44.860;10.066;2023-08-21T03:13:01;26.60;99.90
28532;DHT22;15738;44.860;10.066;2023-08-21T03:15:47;26.50;99.90
28532;DHT22;15738;44.860;10.066;2023-08-21T03:18:54;26.50;99.90
28532;DHT22;15738;44.860;10.066;2023-08-21T03:21:41;26.50;99.90
28532;DHT22;15738;44.860;10.066;2023-08-21T03:24:27;26.40;99.90
28532;DHT22;15738;44.860;10.066;2023-08-21T03:27:18;26.50;99.90
28532;DHT22;15738;44.860;10.066;2023-08-21T03:30:05;26.40;99.90
28532;DHT22;15738;44.860;10.066;2023-08-21T03:32:52;26.30;99.90
28532;DHT22;15738;44.860;10.066;2023-08-21T03:35:38;26.30;99.90
28532;DHT22;15738;44.860;10.066;2023-08-21T03:38:24;26.30;99.90
28532;DHT22;15738;44.860;10.066;2023-08-21T03:41:11;26.30;99.90
28532;DHT22;15738;44.860;10.066;2023-08-21T03:44:01;26.30;99.90
28532;DHT22;15738;44.860;10.066;2023-08-21T03:46:47;26.10;99.90
28532;DHT22;15738;44.860;10.066;2023-08-21T03:49:33;26.10;99.90
28532;DHT22;15738;44.860;10.066;2023-08-21T03:52:19;26.00;99.90
28532;DHT22;15738;44.860;10.066;2023-08-21T03:55:05;26.00;99.90
28532;DHT22;15738;44.860;10.066;2023-08-21T03:57:51;25.90;99.90
28532;DHT22;15738;44.860;10.066;2023-08-21T04:00:37;25.90;99.90
28532;DHT22;15738;44.860;10.066;2023-08-21T04:03:23;25.90;99.90
28532;DHT22;15738;44.860;10.066;2023-08-21T04:06:09;25.80;99.90
28532;DHT22;15738;44.860;10.066;2023-08-21T04:08:55;25.80;99.90
28532;DHT22;15738;44.860;10.066;2023-08-21T04:11:41;25.70;99.90
28532;DHT22;15738;44.860;10.066;2023-08-21T04:14:26;25.80;99.90
28532;DHT22;15738;44.860;10.066;2023-08-21T04:17:12;25.70;99.90
28532;DHT22;15738;44.860;10.066;2023-08-21T04:19:58;25.70;99.90
28532;DHT22;15738;44.860;10.066;2023-08-21T04:22:44;25.70;99.90
28532;DHT22;15738;44.860;10.066;2023-08-21T04:25:30;25.60;99.90
28532;DHT22;15738;44.860;10.066;2023-08-21T04:28:16;25.60;99.90
28532;DHT22;15738;44.860;10.066;2023-08-21T04:31:05;25.60;99.90
28532;DHT22;15738;44.860;10.066;2023-08-21T04:33:52;25.60;99.90
28532;DHT22;15738;44.860;10.066;2023-08-21T04:36:38;25.50;99.90
28532;DHT22;15738;44.860;10.066;2023-08-21T04:39:24;25.50;99.90
28532;DHT22;15738;44.860;10.066;2023-08-21T04:42:11;25.50;99.90
28532;DHT22;15738;44.860;10.066;2023-08-21T04:44:57;25.50;99.90
28532;DHT22;15738;44.860;10.066;2023-08-21T04:47:44;25.50;99.90
28532;DHT22;15738;44.860;10.066;2023-08-21T04:50:30;25.60;99.90
28532;DHT22;15738;44.860;10.066;2023-08-21T04:53:16;25.60;99.90
28532;DHT22;15738;44.860;10.066;2023-08-21T04:56:03;25.60;99.90
28532;DHT22;15738;44.860;10.066;2023-08-21T04:58:51;25.70;99.90
28532;DHT22;15738;44.860;10.066;2023-08-21T05:01:37;25.80;99.90
28532;DHT22;15738;44.860;10.066;2023-08-21T05:04:23;25.80;99.90
28532;DHT22;15738;44.860;10.066;2023-08-21T05:07:09;26.30;99.90
28532;DHT22;15738;44.860;10.066;2023-08-21T05:09:59;26.70;99.90
28532;DHT22;15738;44.860;10.066;2023-08-21T05:12:47;26.80;99.90
28532;DHT22;15738;44.860;10.066;2023-08-21T05:15:35;27.20;99.90
28532;DHT22;15738;44.860;10.066;2023-08-21T05:18:21;27.80;99.90
28532;DHT22;15738;44.860;10.066;2023-08-21T05:21:07;28.40;99.90
28532;DHT22;15738;44.860;10.066;2023-08-21T05:23:54;29.10;99.90
28532;DHT22;15738;44.860;10.066;2023-08-21T05:26:40;29.60;99.90
28532;DHT22;15738;44.860;10.066;2023-08-21T05:29:26;30.00;99.90
28532;DHT22;15738;44.860;10.066;2023-08-21T05:32:12;30.30;99.90
28532;DHT22;15738;44.860;10.066;2023-08-21T05:35:00;30.40;99.90
28532;DHT22;15738;44.860;10.066;2023-08-21T05:37:46;30.20;99.90
28532;DHT22;15738;44.860;10.066;2023-08-21T05:40:31;29.80;99.90
28532;DHT22;15738;44.860;10.066;2023-08-21T05:43:17;29.50;99.90
28532;DHT22;15738;44.860;10.066;2023-08-21T05:46:05;29.30;99.90
28532;DHT22;15738;44.860;10.066;2023-08-21T05:48:52;29.30;99.90
28532;DHT22;15738;44.860;10.066;2023-08-21T05:51:38;29.30;99.90
28532;DHT22;15738;44.860;10.066;2023-08-21T05:54:26;29.50;99.90
28532;DHT22;15738;44.860;10.066;2023-08-21T05:57:13;29.40;99.90
28532;DHT22;15738;44.860;10.066;2023-08-21T06:00:00;29.40;99.90
28532;DHT22;15738;44.860;10.066;2023-08-21T06:02:48;29.20;99.90
28532;DHT22;15738;44.860;10.066;2023-08-21T06:05:51;29.20;99.90
28532;DHT22;15738;44.860;10.066;2023-08-21T06:08:37;29.10;99.90
28532;DHT22;15738;44.860;10.066;2023-08-21T06:11:23;29.10;99.90
28532;DHT22;15738;44.860;10.066;2023-08-21T06:14:08;29.20;99.90
28532;DHT22;15738;44.860;10.066;2023-08-21T06:17:04;29.30;99.90
28532;DHT22;15738;44.860;10.066;2023-08-21T06:19:51;29.30;99.90
28532;DHT22;15738;44.860;10.066;2023-08-21T06:22:37;29.50;99.90
28532;DHT22;15738;44.860;10.066;2023-08-21T06:25:23;29.60;99.90
28532;DHT22;15738;44.860;10.066;2023-08-21T06:28:09;29.70;99.90
28532;DHT22;15738;44.860;10.066;2023-08-21T06:30:58;29.90;99.90
28532;DHT22;15738;44.860;10.066;2023-08-21T06:33:44;30.10;99.90
28532;DHT22;15738;44.860;10.066;2023-08-21T06:36:30;30.30;99.90
28532;DHT22;15738;44.860;10.066;2023-08-21T06:39:16;30.50;99.90
28532;DHT22;15738;44.860;10.066;2023-08-21T06:42:02;30.80;99.90
28532;DHT22;15738;44.860;10.066;2023-08-21T06:44:57;31.10;99.90
28532;DHT22;15738;44.860;10.066;2023-08-21T06:47:43;31.20;99.90
28532;DHT22;15738;44.860;10.066;2023-08-21T06:50:30;31.40;99.90
28532;DHT22;15738;44.860;10.066;2023-08-21T06:53:16;31.60;99.90
28532;DHT22;15738;44.860;10.066;2023-08-21T06:56:02;31.70;99.90
28532;DHT22;15738;44.860;10.066;2023-08-21T06:58:48;32.10;99.90
28532;DHT22;15738;44.860;10.066;2023-08-21T07:01:35;32.30;99.90
28532;DHT22;15738;44.860;10.066;2023-08-21T07:04:20;32.50;99.90
28532;DHT22;15738;44.860;10.066;2023-08-21T07:07:07;32.60;99.90
28532;DHT22;15738;44.860;10.066;2023-08-21T07:09:52;32.60;99.90
28532;DHT22;15738;44.860;10.066;2023-08-21T07:12:38;32.80;99.90
28532;DHT22;15738;44.860;10.066;2023-08-21T07:15:24;33.00;99.90
28532;DHT22;15738;44.860;10.066;2023-08-21T07:18:10;33.10;99.90
28532;DHT22;15738;44.860;10.066;2023-08-21T07:20:56;32.90;99.90
28532;DHT22;15738;44.860;10.066;2023-08-21T07:23:42;32.70;99.90
28532;DHT22;15738;44.860;10.066;2023-08-21T07:26:28;32.70;99.90
28532;DHT22;15738;44.860;10.066;2023-08-21T07:29:14;33.10;99.90
28532;DHT22;15738;44.860;10.066;2023-08-21T07:32:01;33.00;99.90
28532;DHT22;15738;44.860;10.066;2023-08-21T07:34:51;33.00;99.90
28532;DHT22;15738;44.860;10.066;2023-08-21T07:37:37;32.90;99.90
28532;DHT22;15738;44.860;10.066;2023-08-21T07:40:23;33.20;99.90
28532;DHT22;15738;44.860;10.066;2023-08-21T07:43:09;33.50;99.90
28532;DHT22;15738;44.860;10.066;2023-08-21T07:45:55;33.60;99.90
28532;DHT22;15738;44.860;10.066;2023-08-21T07:48:41;33.60;99.90
28532;DHT22;15738;44.860;10.066;2023-08-21T07:51:27;33.90;99.90
28532;DHT22;15738;44.860;10.066;2023-08-21T07:54:13;34.10;99.90
28532;DHT22;15738;44.860;10.066;2023-08-21T07:56:58;34.30;99.90
28532;DHT22;15738;44.860;10.066;2023-08-21T07:59:44;34.10;99.90
28532;DHT22;15738;44.860;10.066;2023-08-21T08:02:30;34.40;99.90
28532;DHT22;15738;44.860;10.066;2023-08-21T08:05:16;34.30;99.90
28532;DHT22;15738;44.860;10.066;2023-08-21T08:08:03;34.30;99.90
28532;DHT22;15738;44.860;10.066;2023-08-21T08:10:49;34.40;99.90
28532;DHT22;15738;44.860;10.066;2023-08-21T08:13:35;34.50;99.90
28532;DHT22;15738;44.860;10.066;2023-08-21T08:16:21;34.70;99.90
28532;DHT22;15738;44.860;10.066;2023-08-21T08:19:07;34.40;99.90
28532;DHT22;15738;44.860;10.066;2023-08-21T08:21:53;34.60;99.90
28532;DHT22;15738;44.860;10.066;2023-08-21T08:24:39;34.70;99.90
28532;DHT22;15738;44.860;10.066;2023-08-21T08:27:25;34.90;99.90
28532;DHT22;15738;44.860;10.066;2023-08-21T08:30:10;35.00;99.90
28532;DHT22;15738;44.860;10.066;2023-08-21T08:32:56;35.20;99.90
28532;DHT22;15738;44.860;10.066;2023-08-21T08:35:43;35.10;99.90
28532;DHT22;15738;44.860;10.066;2023-08-21T08:38:29;35.60;99.90
28532;DHT22;15738;44.860;10.066;2023-08-21T08:41:46;35.30;99.90
28532;DHT22;15738;44.860;10.066;2023-08-21T08:44:35;35.20;99.90
28532;DHT22;15738;44.860;10.066;2023-08-21T08:47:22;35.00;99.90
28532;DHT22;15738;44.860;10.066;2023-08-21T08:50:09;35.10;99.90
28532;DHT22;15738;44.860;10.066;2023-08-21T08:52:55;35.40;99.90
28532;DHT22;15738;44.860;10.066;2023-08-21T08:55:59;35.40;99.90
28532;DHT22;15738;44.860;10.066;2023-08-21T08:58:46;34.70;99.90
28532;DHT22;15738;44.860;10.066;2023-08-21T09:01:32;35.30;99.90
28532;DHT22;15738;44.860;10.066;2023-08-21T09:04:18;34.90;99.90
28532;DHT22;15738;44.860;10.066;2023-08-21T09:07:11;35.20;99.90
28532;DHT22;15738;44.860;10.066;2023-08-21T09:09:57;35.20;99.00
28532;DHT22;15738;44.860;10.066;2023-08-21T09:12:45;35.20;99.30
28532;DHT22;15738;44.860;10.066;2023-08-21T09:15:32;35.30;99.00
28532;DHT22;15738;44.860;10.066;2023-08-21T09:18:26;35.40;98.50
28532;DHT22;15738;44.860;10.066;2023-08-21T09:21:12;35.40;99.00
28532;DHT22;15738;44.860;10.066;2023-08-21T09:24:01;35.30;99.40
28532;DHT22;15738;44.860;10.066;2023-08-21T09:26:48;35.00;99.70
28532;DHT22;15738;44.860;10.066;2023-08-21T09:29:40;35.00;99.80
28532;DHT22;15738;44.860;10.066;2023-08-21T09:32:27;34.90;99.90
28532;DHT22;15738;44.860;10.066;2023-08-21T09:35:15;35.10;99.70
28532;DHT22;15738;44.860;10.066;2023-08-21T09:38:02;34.90;99.50
28532;DHT22;15738;44.860;10.066;2023-08-21T09:40:55;34.60;99.90
28532;DHT22;15738;44.860;10.066;2023-08-21T09:43:42;34.90;99.90
28532;DHT22;15738;44.860;10.066;2023-08-21T09:46:31;34.90;99.80
28532;DHT22;15738;44.860;10.066;2023-08-21T09:49:19;34.80;99.90
28532;DHT22;15738;44.860;10.066;2023-08-21T09:52:08;34.80;99.60
28532;DHT22;15738;44.860;10.066;2023-08-21T09:54:56;34.80;99.90
28532;DHT22;15738;44.860;10.066;2023-08-21T09:57:43;35.10;99.90
28532;DHT22;15738;44.860;10.066;2023-08-21T10:00:32;35.10;99.50
28532;DHT22;15738;44.860;10.066;2023-08-21T10:03:20;35.00;99.50
28532;DHT22;15738;44.860;10.066;2023-08-21T10:06:09;34.90;99.30
28532;DHT22;15738;44.860;10.066;2023-08-21T10:08:57;35.30;99.20
28532;DHT22;15738;44.860;10.066;2023-08-21T10:12:14;35.00;99.10
28532;DHT22;15738;44.860;10.066;2023-08-21T10:15:01;35.20;99.00
28532;DHT22;15738;44.860;10.066;2023-08-21T10:17:47;36.00;99.20
28532;DHT22;15738;44.860;10.066;2023-08-21T10:20:33;35.40;98.90
28532;DHT22;15738;44.860;10.066;2023-08-21T10:23:37;35.00;99.10
28532;DHT22;15738;44.860;10.066;2023-08-21T10:26:30;35.50;99.10
28532;DHT22;15738;44.860;10.066;2023-08-21T10:29:18;35.00;99.10
28532;DHT22;15738;44.860;10.066;2023-08-21T10:32:05;35.10;99.30
28532;DHT22;15738;44.860;10.066;2023-08-21T10:34:53;35.10;99.70
28532;DHT22;15738;44.860;10.066;2023-08-21T10:38:15;35.00;99.90
28532;DHT22;15738;44.860;10.066;2023-08-21T10:41:09;34.70;99.60
28532;DHT22;15738;44.860;10.066;2023-08-21T10:43:56;34.70;99.30
28532;DHT22;15738;44.860;10.066;2023-08-21T10:46:52;34.50;99.50
28532;DHT22;15738;44.860;10.066;2023-08-21T10:49:38;34.60;99.90
28532;DHT22;15738;44.860;10.066;2023-08-21T10:52:33;34.60;99.00
28532;DHT22;15738;44.860;10.066;2023-08-21T10:55:20;34.50;99.00
28532;DHT22;15738;44.860;10.066;2023-08-21T10:58:08;34.30;99.40
28532;DHT22;15738;44.860;10.066;2023-08-21T11:00:58;34.40;99.30
28532;DHT22;15738;44.860;10.066;2023-08-21T11:03:50;34.50;99.10
28532;DHT22;15738;44.860;10.066;2023-08-21T11:06:38;34.50;99.00
28532;DHT22;15738;44.860;10.066;2023-08-21T11:09:23;34.40;98.90
28532;DHT22;15738;44.860;10.066;2023-08-21T11:12:14;34.40;98.70
28532;DHT22;15738;44.860;10.066;2023-08-21T11:15:02;34.40;98.70
28532;DHT22;15738;44.860;10.066;2023-08-21T11:17:59;34.20;98.90
28532;DHT22;15738;44.860;10.066;2023-08-21T11:20:45;34.30;98.30
28532;DHT22;15738;44.860;10.066;2023-08-21T11:23:33;34.30;98.90
28532;DHT22;15738;44.860;10.066;2023-08-21T11:26:21;34.50;98.90
28532;DHT22;15738;44.860;10.066;2023-08-21T11:29:07;34.50;98.70
28532;DHT22;15738;44.860;10.066;2023-08-21T11:31:53;34.70;97.70
28532;DHT22;15738;44.860;10.066;2023-08-21T11:34:49;34.80;97.90
28532;DHT22;15738;44.860;10.066;2023-08-21T11:37:43;34.90;97.30
28532;DHT22;15738;44.860;10.066;2023-08-21T11:40:36;34.80;97.50
28532;DHT22;15738;44.860;10.066;2023-08-21T11:43:22;34.90;97.60
28532;DHT22;15738;44.860;10.066;2023-08-21T11:46:09;34.90;97.50
28532;DHT22;15738;44.860;10.066;2023-08-21T11:49:00;34.80;97.70
28532;DHT22;15738;44.860;10.066;2023-08-21T11:51:46;34.70;97.80
28532;DHT22;15738;44.860;10.066;2023-08-21T11:54:37;34.80;97.80
28532;DHT22;15738;44.860;10.066;2023-08-21T11:57:23;34.90;97.70
28532;DHT22;15738;44.860;10.066;2023-08-21T12:00:10;34.90;97.70
28532;DHT22;15738;44.860;10.066;2023-08-21T12:02:59;35.00;97.80
28532;DHT22;15738;44.860;10.066;2023-08-21T12:05:46;35.20;97.60
28532;DHT22;15738;44.860;10.066;2023-08-21T12:08:31;35.30;97.20
28532;DHT22;15738;44.860;10.066;2023-08-21T12:11:18;35.20;96.80
28532;DHT22;15738;44.860;10.066;2023-08-21T12:14:04;35.00;96.20
28532;DHT22;15738;44.860;10.066;2023-08-21T12:16:50;34.90;96.50
28532;DHT22;15738;44.860;10.066;2023-08-21T12:19:36;35.00;96.80
28532;DHT22;15738;44.860;10.066;2023-08-21T12:22:22;35.20;97.10
28532;DHT22;15738;44.860;10.066;2023-08-21T12:25:09;35.10;96.40
28532;DHT22;15738;44.860;10.066;2023-08-21T12:27:55;35.00;96.60
28532;DHT22;15738;44.860;10.066;2023-08-21T12:30:53;35.20;96.80
28532;DHT22;15738;44.860;10.066;2023-08-21T12:33:39;35.10;97.00
28532;DHT22;15738;44.860;10.066;2023-08-21T12:36:25;35.10;96.90
28532;DHT22;15738;44.860;10.066;2023-08-21T12:39:11;35.20;97.20
28532;DHT22;15738;44.860;10.066;2023-08-21T12:41:57;35.20;97.60
28532;DHT22;15738;44.860;10.066;2023-08-21T12:44:42;35.30;97.60
28532;DHT22;15738;44.860;10.066;2023-08-21T12:47:28;35.40;97.00
28532;DHT22;15738;44.860;10.066;2023-08-21T12:50:14;35.40;96.90
28532;DHT22;15738;44.860;10.066;2023-08-21T12:53:00;35.50;97.20
28532;DHT22;15738;44.860;10.066;2023-08-21T12:55:46;35.60;97.20
28532;DHT22;15738;44.860;10.066;2023-08-21T12:58:32;35.70;97.10
28532;DHT22;15738;44.860;10.066;2023-08-21T13:01:18;35.60;96.80
28532;DHT22;15738;44.860;10.066;2023-08-21T13:04:05;35.40;96.40
28532;DHT22;15738;44.860;10.066;2023-08-21T13:06:51;35.50;96.80
28532;DHT22;15738;44.860;10.066;2023-08-21T13:09:37;35.50;97.00
28532;DHT22;15738;44.860;10.066;2023-08-21T13:12:22;35.50;97.10
28532;DHT22;15738;44.860;10.066;2023-08-21T13:15:09;35.40;97.10
28532;DHT22;15738;44.860;10.066;2023-08-21T13:17:54;35.50;97.00
28532;DHT22;15738;44.860;10.066;2023-08-21T13:20:43;35.50;97.20
28532;DHT22;15738;44.860;10.066;2023-08-21T13:23:30;35.30;97.00
28532;DHT22;15738;44.860;10.066;2023-08-21T13:26:16;35.20;97.30
28532;DHT22;15738;44.860;10.066;2023-08-21T13:29:02;35.30;97.50
28532;DHT22;15738;44.860;10.066;2023-08-21T13:31:48;35.30;96.90
28532;DHT22;15738;44.860;10.066;2023-08-21T13:34:34;35.30;97.00
28532;DHT22;15738;44.860;10.066;2023-08-21T13:37:20;35.40;97.20
28532;DHT22;15738;44.860;10.066;2023-08-21T13:40:08;35.40;97.30
28532;DHT22;15738;44.860;10.066;2023-08-21T13:42:59;35.50;97.20
28532;DHT22;15738;44.860;10.066;2023-08-21T13:45:47;35.50;97.40
28532;DHT22;15738;44.860;10.066;2023-08-21T13:48:34;35.50;97.50
28532;DHT22;15738;44.860;10.066;2023-08-21T13:51:20;35.50;97.50
28532;DHT22;15738;44.860;10.066;2023-08-21T13:54:08;35.60;97.40
28532;DHT22;15738;44.860;10.066;2023-08-21T13:56:54;35.50;97.50
28532;DHT22;15738;44.860;10.066;2023-08-21T13:59:39;35.60;97.60
28532;DHT22;15738;44.860;10.066;2023-08-21T14:02:26;35.60;97.20
28532;DHT22;15738;44.860;10.066;2023-08-21T14:05:12;35.50;97.30
28532;DHT22;15738;44.860;10.066;2023-08-21T14:07:58;35.50;97.20
28532;DHT22;15738;44.860;10.066;2023-08-21T14:10:44;35.50;97.10
28532;DHT22;15738;44.860;10.066;2023-08-21T14:13:29;35.60;97.40
28532;DHT22;15738;44.860;10.066;2023-08-21T14:16:16;35.60;97.70
28532;DHT22;15738;44.860;10.066;2023-08-21T14:19:02;35.60;97.90
28532;DHT22;15738;44.860;10.066;2023-08-21T14:21:51;35.70;97.70
28532;DHT22;15738;44.860;10.066;2023-08-21T14:24:37;35.60;97.60
28532;DHT22;15738;44.860;10.066;2023-08-21T14:27:23;35.50;97.70
28532;DHT22;15738;44.860;10.066;2023-08-21T14:30:09;35.30;97.30
28532;DHT22;15738;44.860;10.066;2023-08-21T14:32:55;35.30;97.50
28532;DHT22;15738;44.860;10.066;2023-08-21T14:35:41;35.40;97.50
28532;DHT22;15738;44.860;10.066;2023-08-21T14:38:27;35.50;97.00
28532;DHT22;15738;44.860;10.066;2023-08-21T14:41:13;35.40;96.90
28532;DHT22;15738;44.860;10.066;2023-08-21T14:43:59;35.50;97.30
28532;DHT22;15738;44.860;10.066;2023-08-21T14:46:44;35.60;97.00
28532;DHT22;15738;44.860;10.066;2023-08-21T14:49:30;35.60;97.10
28532;DHT22;15738;44.860;10.066;2023-08-21T14:52:16;35.60;97.00
28532;DHT22;15738;44.860;10.066;2023-08-21T14:55:02;35.50;97.10
28532;DHT22;15738;44.860;10.066;2023-08-21T14:57:48;35.40;97.40
28532;DHT22;15738;44.860;10.066;2023-08-21T15:00:34;35.40;97.40
28532;DHT22;15738;44.860;10.066;2023-08-21T15:03:20;35.40;97.10
28532;DHT22;15738;44.860;10.066;2023-08-21T15:06:07;35.50;97.30
28532;DHT22;15738;44.860;10.066;2023-08-21T15:08:53;35.50;97.00
28532;DHT22;15738;44.860;10.066;2023-08-21T15:11:38;35.40;96.40
28532;DHT22;15738;44.860;10.066;2023-08-21T15:14:24;35.50;96.60
28532;DHT22;15738;44.860;10.066;2023-08-21T15:17:10;35.50;96.50
28532;DHT22;15738;44.860;10.066;2023-08-21T15:20:04;35.50;96.60
28532;DHT22;15738;44.860;10.066;2023-08-21T15:22:50;35.40;96.70
28532;DHT22;15738;44.860;10.066;2023-08-21T15:25:36;35.40;97.00
28532;DHT22;15738;44.860;10.066;2023-08-21T15:28:22;35.40;96.90
28532;DHT22;15738;44.860;10.066;2023-08-21T15:31:08;35.40;96.70
28532;DHT22;15738;44.860;10.066;2023-08-21T15:33:54;35.40;97.10
28532;DHT22;15738;44.860;10.066;2023-08-21T15:36:40;35.40;97.10
28532;DHT22;15738;44.860;10.066;2023-08-21T15:39:26;35.40;96.80
28532;DHT22;15738;44.860;10.066;2023-08-21T15:42:12;35.30;97.00
28532;DHT22;15738;44.860;10.066;2023-08-21T15:44:58;35.30;96.70
28532;DHT22;15738;44.860;10.066;2023-08-21T15:47:44;35.40;96.60
28532;DHT22;15738;44.860;10.066;2023-08-21T15:50:34;35.30;96.40
28532;DHT22;15738;44.860;10.066;2023-08-21T15:53:19;35.30;96.60
28532;DHT22;15738;44.860;10.066;2023-08-21T15:56:06;35.40;96.80
28532;DHT22;15738;44.860;10.066;2023-08-21T15:58:53;35.30;96.70
28532;DHT22;15738;44.860;10.066;2023-08-21T16:01:39;35.20;97.10
28532;DHT22;15738;44.860;10.066;2023-08-21T16:04:25;35.10;97.00
28532;DHT22;15738;44.860;10.066;2023-08-21T16:07:11;35.10;97.10
28532;DHT22;15738;44.860;10.066;2023-08-21T16:09:57;35.10;97.20
28532;DHT22;15738;44.860;10.066;2023-08-21T16:12:46;35.10;97.30
28532;DHT22;15738;44.860;10.066;2023-08-21T16:15:32;35.10;96.80
28532;DHT22;15738;44.860;10.066;2023-08-21T16:18:17;35.10;97.40
28532;DHT22;15738;44.860;10.066;2023-08-21T16:21:06;35.00;97.30
28532;DHT22;15738;44.860;10.066;2023-08-21T16:23:52;35.00;97.00
28532;DHT22;15738;44.860;10.066;2023-08-21T16:26:39;34.90;97.00
28532;DHT22;15738;44.860;10.066;2023-08-21T16:29:24;35.00;97.20
28532;DHT22;15738;44.860;10.066;2023-08-21T16:32:10;34.90;97.40
28532;DHT22;15738;44.860;10.066;2023-08-21T16:34:56;34.90;97.50
28532;DHT22;15738;44.860;10.066;2023-08-21T16:37:42;34.80;97.30
28532;DHT22;15738;44.860;10.066;2023-08-21T16:40:29;34.80;97.40
28532;DHT22;15738;44.860;10.066;2023-08-21T16:43:16;34.80;97.40
28532;DHT22;15738;44.860;10.066;2023-08-21T16:46:02;34.80;97.30
28532;DHT22;15738;44.860;10.066;2023-08-21T16:48:48;34.70;97.40
28532;DHT22;15738;44.860;10.066;2023-08-21T16:51:34;34.70;97.60
28532;DHT22;15738;44.860;10.066;2023-08-21T16:54:20;34.70;97.80
28532;DHT22;15738;44.860;10.066;2023-08-21T16:57:06;34.70;98.10
28532;DHT22;15738;44.860;10.066;2023-08-21T16:59:52;34.60;97.90
28532;DHT22;15738;44.860;10.066;2023-08-21T17:02:41;34.60;98.10
28532;DHT22;15738;44.860;10.066;2023-08-21T17:05:27;34.60;98.10
28532;DHT22;15738;44.860;10.066;2023-08-21T17:08:13;34.50;98.10
28532;DHT22;15738;44.860;10.066;2023-08-21T17:10:59;34.40;98.40
28532;DHT22;15738;44.860;10.066;2023-08-21T17:13:45;34.40;98.40
28532;DHT22;15738;44.860;10.066;2023-08-21T17:16:32;34.40;98.40
28532;DHT22;15738;44.860;10.066;2023-08-21T17:19:17;34.30;98.50
28532;DHT22;15738;44.860;10.066;2023-08-21T17:22:05;34.30;98.60
28532;DHT22;15738;44.860;10.066;2023-08-21T17:24:51;34.20;98.80
28532;DHT22;15738;44.860;10.066;2023-08-21T17:27:56;34.10;98.90